sensor_id;sensor_type;location;lat;lon;timestamp;P1;durP1;ratioP1;P2;durP2;ratioP2
22673;SDS011;11504;43.334;21.918;2022-08-05T00:01:55;11.0;;;10.0;;
22673;SDS011;11504;43.334;21.918;2022-08-05T00:06:32;11.0;;;10.0;;
22673;SDS011;11504;43.334;21.918;2022-08-05T00:11:12;11.0;;;10.0;;
22673;SDS011;11504;43.334;21.918;2022-08-05T00:15:51;11.0;;;10.0;;
22673;SDS011;11504;43.334;21.918;2022-08-05T00:20:28;11.0;;;10.0;;
22673;SDS011;11504;43.334;21.918;2022-08-05T00:25:05;11.0;;;10.0;;
22673;SDS011;11504;43.334;21.918;2022-08-05T00:29:43;11.0;;;10.0;;
22673;SDS011;11504;43.334;21.918;2022-08-05T00:34:20;10.0;;;10.0;;
22673;SDS011;11504;43.334;21.918;2022-08-05T00:38:57;10.0;;;10.0;;
22673;SDS011;11504;43.334;21.918;2022-08-05T00:43:34;9.0;;;9.0;;
22673;SDS011;11504;43.334;21.918;2022-08-05T00:48:13;9.0;;;9.0;;
22673;SDS011;11504;43.334;21.918;2022-08-05T00:52:59;10.0;;;9.0;;
22673;SDS011;11504;43.334;21.918;2022-08-05T00:57:36;10.0;;;9.0;;
22673;SDS011;11504;43.334;21.918;2022-08-05T01:02:13;10.0;;;9.0;;
22673;SDS011;11504;43.334;21.918;2022-08-05T01:06:50;10.0;;;9.0;;
22673;SDS011;11504;43.334;21.918;2022-08-05T01:11:31;10.0;;;9.0;;
22673;SDS011;11504;43.334;21.918;2022-08-05T01:16:25;10.0;;;9.0;;
22673;SDS011;11504;43.334;21.918;2022-08-05T01:21:54;10.0;;;9.0;;
22673;SDS011;11504;43.334;21.918;2022-08-05T01:27:53;10.0;;;9.0;;
22673;SDS011;11504;43.334;21.918;2022-08-05T01:33:12;11.0;;;10.0;;
22673;SDS011;11504;43.334;21.918;2022-08-05T01:38:09;11.0;;;10.0;;
22673;SDS011;11504;43.334;21.918;2022-08-05T01:42:56;12.0;;;11.0;;
22673;SDS011;11504;43.334;21.918;2022-08-05T01:47:45;12.0;;;11.0;;
22673;SDS011;11504;43.334;21.918;2022-08-05T01:52:37;12.0;;;11.0;;
22673;SDS011;11504;43.334;21.918;2022-08-05T01:57:30;12.0;;;11.0;;
22673;SDS011;11504;43.334;21.918;2022-08-05T02:02:21;12.0;;;11.0;;
22673;SDS011;11504;43.334;21.918;2022-08-05T02:07:09;12.0;;;11.0;;
22673;SDS011;11504;43.334;21.918;2022-08-05T02:12:00;12.0;;;11.0;;
22673;SDS011;11504;43.334;21.918;2022-08-05T02:17:25;12.0;;;11.0;;
22673;SDS011;11504;43.334;21.918;2022-08-05T02:22:44;12.0;;;11.0;;
22673;SDS011;11504;43.334;21.918;2022-08-05T02:27:50;12.0;;;11.0;;
22673;SDS011;11504;43.334;21.918;2022-08-05T02:32:46;12.0;;;10.0;;
22673;SDS011;11504;43.334;21.918;2022-08-05T02:37:40;12.0;;;10.0;;
22673;SDS011;11504;43.334;21.918;2022-08-05T02:42:24;11.0;;;10.0;;
22673;SDS011;11504;43.334;21.918;2022-08-05T02:47:08;11.0;;;10.0;;
22673;SDS011;11504;43.334;21.918;2022-08-05T02:51:53;12.0;;;10.0;;
22673;SDS011;11504;43.334;21.918;2022-08-05T02:56:33;12.0;;;10.0;;
22673;SDS011;11504;43.334;21.918;2022-08-05T03:01:16;12.0;;;10.0;;
22673;SDS011;11504;43.334;21.918;2022-08-05T03:06:04;12.0;;;11.0;;
22673;SDS011;11504;43.334;21.918;2022-08-05T03:10:46;12.0;;;11.0;;
22673;SDS011;11504;43.334;21.918;2022-08-05T03:15:23;12.0;;;11.0;;
22673;SDS011;11504;43.334;21.918;2022-08-05T03:20:00;12.0;;;11.0;;
22673;SDS011;11504;43.334;21.918;2022-08-05T03:24:42;11.0;;;11.0;;
22673;SDS011;11504;43.334;21.918;2022-08-05T03:29:27;11.0;;;11.0;;
22673;SDS011;11504;43.334;21.918;2022-08-05T03:34:05;12.0;;;11.0;;
22673;SDS011;11504;43.334;21.918;2022-08-05T03:38:44;12.0;;;11.0;;
22673;SDS011;11504;43.334;21.918;2022-08-05T03:43:21;12.0;;;11.0;;
22673;SDS011;11504;43.334;21.918;2022-08-05T03:47:58;12.0;;;11.0;;
22673;SDS011;11504;43.334;21.918;2022-08-05T03:52:41;12.0;;;12.0;;
22673;SDS011;11504;43.334;21.918;2022-08-05T03:57:50;12.0;;;12.0;;
22673;SDS011;11504;43.334;21.918;2022-08-05T04:02:34;12.0;;;12.0;;
22673;SDS011;11504;43.334;21.918;2022-08-05T04:07:25;12.0;;;12.0;;
22673;SDS011;11504;43.334;21.918;2022-08-05T04:12:09;12.0;;;12.0;;
22673;SDS011;11504;43.334;21.918;2022-08-05T04:16:47;12.0;;;12.0;;
22673;SDS011;11504;43.334;21.918;2022-08-05T04:21:25;12.0;;;12.0;;
22673;SDS011;11504;43.334;21.918;2022-08-05T04:26:02;12.0;;;11.0;;
22673;SDS011;11504;43.334;21.918;2022-08-05T04:30:40;12.0;;;11.0;;
22673;SDS011;11504;43.334;21.918;2022-08-05T04:35:16;12.0;;;11.0;;
22673;SDS011;11504;43.334;21.918;2022-08-05T04:39:54;12.0;;;11.0;;
22673;SDS011;11504;43.334;21.918;2022-08-05T04:44:31;12.0;;;11.0;;
22673;SDS011;11504;43.334;21.918;2022-08-05T04:49:07;12.0;;;11.0;;
22673;SDS011;11504;43.334;21.918;2022-08-05T04:53:44;11.0;;;10.0;;
22673;SDS011;11504;43.334;21.918;2022-08-05T04:58:21;11.0;;;10.0;;
22673;SDS011;11504;43.334;21.918;2022-08-05T05:02:59;10.0;;;9.0;;
22673;SDS011;11504;43.334;21.918;2022-08-05T05:07:42;10.0;;;9.0;;
22673;SDS011;11504;43.334;21.918;2022-08-05T05:12:19;10.0;;;9.0;;
22673;SDS011;11504;43.334;21.918;2022-08-05T05:16:55;10.0;;;9.0;;
22673;SDS011;11504;43.334;21.918;2022-08-05T05:21:33;10.0;;;9.0;;
22673;SDS011;11504;43.334;21.918;2022-08-05T05:26:10;10.0;;;9.0;;
22673;SDS011;11504;43.334;21.918;2022-08-05T05:30:46;10.0;;;9.0;;
22673;SDS011;11504;43.334;21.918;2022-08-05T05:35:23;10.0;;;9.0;;
22673;SDS011;11504;43.334;21.918;2022-08-05T05:40:00;10.0;;;9.0;;
22673;SDS011;11504;43.334;21.918;2022-08-05T05:44:37;10.0;;;9.0;;
22673;SDS011;11504;43.334;21.918;2022-08-05T05:49:13;10.0;;;9.0;;
22673;SDS011;11504;43.334;21.918;2022-08-05T05:53:51;10.0;;;10.0;;
22673;SDS011;11504;43.334;21.918;2022-08-05T05:58:29;10.0;;;10.0;;
22673;SDS011;11504;43.334;21.918;2022-08-05T06:03:06;11.0;;;10.0;;
22673;SDS011;11504;43.334;21.918;2022-08-05T06:07:43;11.0;;;10.0;;
22673;SDS011;11504;43.334;21.918;2022-08-05T06:12:21;12.0;;;10.0;;
22673;SDS011;11504;43.334;21.918;2022-08-05T06:16:58;12.0;;;10.0;;
22673;SDS011;11504;43.334;21.918;2022-08-05T06:21:38;12.0;;;10.0;;
22673;SDS011;11504;43.334;21.918;2022-08-05T06:26:14;12.0;;;11.0;;
22673;SDS011;11504;43.334;21.918;2022-08-05T06:30:51;12.0;;;11.0;;
22673;SDS011;11504;43.334;21.918;2022-08-05T06:35:27;12.0;;;10.0;;
22673;SDS011;11504;43.334;21.918;2022-08-05T06:40:05;12.0;;;10.0;;
22673;SDS011;11504;43.334;21.918;2022-08-05T06:44:47;11.0;;;10.0;;
22673;SDS011;11504;43.334;21.918;2022-08-05T06:49:24;11.0;;;10.0;;
22673;SDS011;11504;43.334;21.918;2022-08-05T06:54:02;11.0;;;10.0;;
22673;SDS011;11504;43.334;21.918;2022-08-05T06:58:40;11.0;;;10.0;;
22673;SDS011;11504;43.334;21.918;2022-08-05T07:03:16;11.0;;;10.0;;
22673;SDS011;11504;43.334;21.918;2022-08-05T07:07:54;11.0;;;10.0;;
22673;SDS011;11504;43.334;21.918;2022-08-05T07:12:31;10.0;;;10.0;;
22673;SDS011;11504;43.334;21.918;2022-08-05T07:17:10;10.0;;;10.0;;
22673;SDS011;11504;43.334;21.918;2022-08-05T07:21:48;10.0;;;10.0;;
22673;SDS011;11504;43.334;21.918;2022-08-05T07:26:25;10.0;;;10.0;;
22673;SDS011;11504;43.334;21.918;2022-08-05T07:31:02;10.0;;;10.0;;
22673;SDS011;11504;43.334;21.918;2022-08-05T07:35:40;10.0;;;10.0;;
22673;SDS011;11504;43.334;21.918;2022-08-05T07:40:20;10.0;;;10.0;;
22673;SDS011;11504;43.334;21.918;2022-08-05T07:44:58;10.0;;;10.0;;
22673;SDS011;11504;43.334;21.918;2022-08-05T07:49:36;10.0;;;10.0;;
22673;SDS011;11504;43.334;21.918;2022-08-05T07:54:12;12.0;;;11.0;;
22673;SDS011;11504;43.334;21.918;2022-08-05T07:58:50;12.0;;;11.0;;
22673;SDS011;11504;43.334;21.918;2022-08-05T08:03:27;13.0;;;12.0;;
22673;SDS011;11504;43.334;21.918;2022-08-05T08:08:04;13.0;;;12.0;;
22673;SDS011;11504;43.334;21.918;2022-08-05T08:12:41;12.0;;;12.0;;
22673;SDS011;11504;43.334;21.918;2022-08-05T08:17:18;12.0;;;12.0;;
22673;SDS011;11504;43.334;21.918;2022-08-05T08:21:56;12.0;;;12.0;;
22673;SDS011;11504;43.334;21.918;2022-08-05T08:26:33;12.0;;;12.0;;
22673;SDS011;11504;43.334;21.918;2022-08-05T08:31:09;12.0;;;12.0;;
22673;SDS011;11504;43.334;21.918;2022-08-05T08:35:46;13.0;;;12.0;;
22673;SDS011;11504;43.334;21.918;2022-08-05T08:40:22;13.0;;;12.0;;
22673;SDS011;11504;43.334;21.918;2022-08-05T08:45:02;14.0;;;13.0;;
22673;SDS011;11504;43.334;21.918;2022-08-05T08:49:46;14.0;;;13.0;;
22673;SDS011;11504;43.334;21.918;2022-08-05T08:54:37;12.0;;;12.0;;
22673;SDS011;11504;43.334;21.918;2022-08-05T08:59:17;12.0;;;12.0;;
22673;SDS011;11504;43.334;21.918;2022-08-05T09:04:00;11.0;;;11.0;;
22673;SDS011;11504;43.334;21.918;2022-08-05T09:08:38;11.0;;;11.0;;
22673;SDS011;11504;43.334;21.918;2022-08-05T09:13:15;12.0;;;11.0;;
22673;SDS011;11504;43.334;21.918;2022-08-05T09:17:53;12.0;;;11.0;;
22673;SDS011;11504;43.334;21.918;2022-08-05T09:23:02;12.0;;;11.0;;
22673;SDS011;11504;43.334;21.918;2022-08-05T09:27:50;12.0;;;11.0;;
22673;SDS011;11504;43.334;21.918;2022-08-05T09:32:35;12.0;;;11.0;;
22673;SDS011;11504;43.334;21.918;2022-08-05T09:37:16;12.0;;;11.0;;
22673;SDS011;11504;43.334;21.918;2022-08-05T09:42:03;12.0;;;11.0;;
22673;SDS011;11504;43.334;21.918;2022-08-05T09:46:41;12.0;;;11.0;;
22673;SDS011;11504;43.334;21.918;2022-08-05T09:51:17;12.0;;;11.0;;
22673;SDS011;11504;43.334;21.918;2022-08-05T09:56:13;12.0;;;11.0;;
22673;SDS011;11504;43.334;21.918;2022-08-05T10:01:05;12.0;;;11.0;;
22673;SDS011;11504;43.334;21.918;2022-08-05T10:05:59;12.0;;;11.0;;
22673;SDS011;11504;43.334;21.918;2022-08-05T10:10:46;12.0;;;11.0;;
22673;SDS011;11504;43.334;21.918;2022-08-05T10:15:27;12.0;;;12.0;;
22673;SDS011;11504;43.334;21.918;2022-08-05T10:20:14;12.0;;;12.0;;
22673;SDS011;11504;43.334;21.918;2022-08-05T10:24:52;13.0;;;12.0;;
22673;SDS011;11504;43.334;21.918;2022-08-05T10:29:29;13.0;;;12.0;;
22673;SDS011;11504;43.334;21.918;2022-08-05T10:34:07;12.0;;;11.0;;
22673;SDS011;11504;43.334;21.918;2022-08-05T10:38:46;12.0;;;11.0;;
22673;SDS011;11504;43.334;21.918;2022-08-05T10:43:58;11.0;;;10.0;;
22673;SDS011;11504;43.334;21.918;2022-08-05T10:48:55;11.0;;;10.0;;
22673;SDS011;11504;43.334;21.918;2022-08-05T10:53:37;10.0;;;10.0;;
22673;SDS011;11504;43.334;21.918;2022-08-05T10:58:33;10.0;;;10.0;;
22673;SDS011;11504;43.334;21.918;2022-08-05T11:04:06;10.0;;;10.0;;
22673;SDS011;11504;43.334;21.918;2022-08-05T11:09:36;10.0;;;10.0;;
22673;SDS011;11504;43.334;21.918;2022-08-05T11:14:26;9.0;;;8.0;;
22673;SDS011;11504;43.334;21.918;2022-08-05T11:19:27;9.0;;;8.0;;
22673;SDS011;11504;43.334;21.918;2022-08-05T11:24:07;8.0;;;7.0;;
22673;SDS011;11504;43.334;21.918;2022-08-05T11:28:48;8.0;;;7.0;;
22673;SDS011;11504;43.334;21.918;2022-08-05T11:33:31;9.0;;;8.0;;
22673;SDS011;11504;43.334;21.918;2022-08-05T11:38:50;9.0;;;8.0;;
22673;SDS011;11504;43.334;21.918;2022-08-05T11:43:28;10.0;;;9.0;;
22673;SDS011;11504;43.334;21.918;2022-08-05T11:48:08;10.0;;;9.0;;
22673;SDS011;11504;43.334;21.918;2022-08-05T11:52:46;10.0;;;10.0;;
22673;SDS011;11504;43.334;21.918;2022-08-05T11:57:27;10.0;;;10.0;;
22673;SDS011;11504;43.334;21.918;2022-08-05T12:02:07;10.0;;;10.0;;
22673;SDS011;11504;43.334;21.918;2022-08-05T12:06:44;10.0;;;10.0;;
22673;SDS011;11504;43.334;21.918;2022-08-05T12:11:23;10.0;;;10.0;;
22673;SDS011;11504;43.334;21.918;2022-08-05T12:16:06;10.0;;;10.0;;
22673;SDS011;11504;43.334;21.918;2022-08-05T12:20:55;10.0;;;10.0;;
22673;SDS011;11504;43.334;21.918;2022-08-05T12:25:48;9.0;;;9.0;;
22673;SDS011;11504;43.334;21.918;2022-08-05T12:30:36;9.0;;;9.0;;
22673;SDS011;11504;43.334;21.918;2022-08-05T12:35:15;10.0;;;9.0;;
22673;SDS011;11504;43.334;21.918;2022-08-05T12:39:56;10.0;;;9.0;;
22673;SDS011;11504;43.334;21.918;2022-08-05T12:44:34;10.0;;;9.0;;
22673;SDS011;11504;43.334;21.918;2022-08-05T12:49:14;10.0;;;9.0;;
22673;SDS011;11504;43.334;21.918;2022-08-05T12:53:57;10.0;;;10.0;;
22673;SDS011;11504;43.334;21.918;2022-08-05T12:58:39;10.0;;;10.0;;
22673;SDS011;11504;43.334;21.918;2022-08-05T13:03:16;10.0;;;10.0;;
22673;SDS011;11504;43.334;21.918;2022-08-05T13:07:56;10.0;;;10.0;;
22673;SDS011;11504;43.334;21.918;2022-08-05T13:12:38;11.0;;;10.0;;
22673;SDS011;11504;43.334;21.918;2022-08-05T13:17:21;11.0;;;10.0;;
22673;SDS011;11504;43.334;21.918;2022-08-05T13:22:07;11.0;;;10.0;;
22673;SDS011;11504;43.334;21.918;2022-08-05T13:26:45;12.0;;;11.0;;
22673;SDS011;11504;43.334;21.918;2022-08-05T13:31:27;12.0;;;11.0;;
22673;SDS011;11504;43.334;21.918;2022-08-05T13:36:03;11.0;;;10.0;;
22673;SDS011;11504;43.334;21.918;2022-08-05T13:40:40;11.0;;;10.0;;
22673;SDS011;11504;43.334;21.918;2022-08-05T13:45:17;10.0;;;9.0;;
22673;SDS011;11504;43.334;21.918;2022-08-05T13:49:54;10.0;;;9.0;;
22673;SDS011;11504;43.334;21.918;2022-08-05T13:54:31;10.0;;;10.0;;
22673;SDS011;11504;43.334;21.918;2022-08-05T13:59:08;10.0;;;10.0;;
22673;SDS011;11504;43.334;21.918;2022-08-05T14:03:45;10.0;;;10.0;;
22673;SDS011;11504;43.334;21.918;2022-08-05T14:08:21;10.0;;;10.0;;
22673;SDS011;11504;43.334;21.918;2022-08-05T14:12:58;10.0;;;10.0;;
22673;SDS011;11504;43.334;21.918;2022-08-05T14:17:34;10.0;;;10.0;;
22673;SDS011;11504;43.334;21.918;2022-08-05T14:22:11;10.0;;;10.0;;
22673;SDS011;11504;43.334;21.918;2022-08-05T14:26:47;10.0;;;10.0;;
22673;SDS011;11504;43.334;21.918;2022-08-05T14:31:24;10.0;;;10.0;;
22673;SDS011;11504;43.334;21.918;2022-08-05T14:36:00;10.0;;;10.0;;
22673;SDS011;11504;43.334;21.918;2022-08-05T14:40:39;10.0;;;10.0;;
22673;SDS011;11504;43.334;21.918;2022-08-05T14:45:16;10.0;;;9.0;;
22673;SDS011;11504;43.334;21.918;2022-08-05T14:49:52;10.0;;;9.0;;
22673;SDS011;11504;43.334;21.918;2022-08-05T14:54:29;10.0;;;9.0;;
22673;SDS011;11504;43.334;21.918;2022-08-05T14:59:06;10.0;;;9.0;;
22673;SDS011;11504;43.334;21.918;2022-08-05T15:03:42;9.0;;;9.0;;
22673;SDS011;11504;43.334;21.918;2022-08-05T15:08:19;9.0;;;9.0;;
22673;SDS011;11504;43.334;21.918;2022-08-05T15:12:56;10.0;;;10.0;;
22673;SDS011;11504;43.334;21.918;2022-08-05T15:17:33;10.0;;;10.0;;
22673;SDS011;11504;43.334;21.918;2022-08-05T15:22:10;10.0;;;10.0;;
22673;SDS011;11504;43.334;21.918;2022-08-05T15:26:47;10.0;;;10.0;;
22673;SDS011;11504;43.334;21.918;2022-08-05T15:31:24;10.0;;;10.0;;
22673;SDS011;11504;43.334;21.918;2022-08-05T15:36:02;10.0;;;10.0;;
22673;SDS011;11504;43.334;21.918;2022-08-05T15:40:45;10.0;;;10.0;;
22673;SDS011;11504;43.334;21.918;2022-08-05T15:45:22;9.0;;;9.0;;
22673;SDS011;11504;43.334;21.918;2022-08-05T15:50:00;9.0;;;9.0;;
22673;SDS011;11504;43.334;21.918;2022-08-05T15:54:38;10.0;;;9.0;;
22673;SDS011;11504;43.334;21.918;2022-08-05T15:59:15;10.0;;;9.0;;
22673;SDS011;11504;43.334;21.918;2022-08-05T16:03:52;10.0;;;9.0;;
22673;SDS011;11504;43.334;21.918;2022-08-05T16:08:28;10.0;;;9.0;;
22673;SDS011;11504;43.334;21.918;2022-08-05T16:13:05;12.0;;;10.0;;
22673;SDS011;11504;43.334;21.918;2022-08-05T16:17:42;12.0;;;10.0;;
22673;SDS011;11504;43.334;21.918;2022-08-05T16:22:18;13.0;;;12.0;;
22673;SDS011;11504;43.334;21.918;2022-08-05T16:26:58;13.0;;;12.0;;
22673;SDS011;11504;43.334;21.918;2022-08-05T16:31:40;13.0;;;12.0;;
22673;SDS011;11504;43.334;21.918;2022-08-05T16:36:17;12.0;;;12.0;;
22673;SDS011;11504;43.334;21.918;2022-08-05T16:40:56;12.0;;;12.0;;
22673;SDS011;11504;43.334;21.918;2022-08-05T16:45:38;11.0;;;11.0;;
22673;SDS011;11504;43.334;21.918;2022-08-05T16:50:15;11.0;;;11.0;;
22673;SDS011;11504;43.334;21.918;2022-08-05T16:54:51;11.0;;;10.0;;
22673;SDS011;11504;43.334;21.918;2022-08-05T16:59:28;11.0;;;10.0;;
22673;SDS011;11504;43.334;21.918;2022-08-05T17:04:05;11.0;;;10.0;;
22673;SDS011;11504;43.334;21.918;2022-08-05T17:08:42;11.0;;;10.0;;
22673;SDS011;11504;43.334;21.918;2022-08-05T17:13:20;12.0;;;10.0;;
22673;SDS011;11504;43.334;21.918;2022-08-05T17:17:58;12.0;;;10.0;;
22673;SDS011;11504;43.334;21.918;2022-08-05T17:22:35;12.0;;;11.0;;
22673;SDS011;11504;43.334;21.918;2022-08-05T17:27:12;12.0;;;11.0;;
22673;SDS011;11504;43.334;21.918;2022-08-05T17:31:48;12.0;;;11.0;;
22673;SDS011;11504;43.334;21.918;2022-08-05T17:36:25;13.0;;;12.0;;
22673;SDS011;11504;43.334;21.918;2022-08-05T17:41:02;13.0;;;12.0;;
22673;SDS011;11504;43.334;21.918;2022-08-05T17:45:39;14.0;;;14.0;;
22673;SDS011;11504;43.334;21.918;2022-08-05T17:50:16;14.0;;;14.0;;
22673;SDS011;11504;43.334;21.918;2022-08-05T17:54:52;14.0;;;14.0;;
22673;SDS011;11504;43.334;21.918;2022-08-05T17:59:29;14.0;;;14.0;;
22673;SDS011;11504;43.334;21.918;2022-08-05T18:04:06;15.0;;;14.0;;
22673;SDS011;11504;43.334;21.918;2022-08-05T18:08:44;15.0;;;14.0;;
22673;SDS011;11504;43.334;21.918;2022-08-05T18:13:22;16.0;;;16.0;;
22673;SDS011;11504;43.334;21.918;2022-08-05T18:18:00;16.0;;;16.0;;
22673;SDS011;11504;43.334;21.918;2022-08-05T18:22:37;17.0;;;17.0;;
22673;SDS011;11504;43.334;21.918;2022-08-05T18:27:15;17.0;;;17.0;;
22673;SDS011;11504;43.334;21.918;2022-08-05T18:31:51;17.0;;;17.0;;
22673;SDS011;11504;43.334;21.918;2022-08-05T18:36:28;16.0;;;16.0;;
22673;SDS011;11504;43.334;21.918;2022-08-05T18:41:06;16.0;;;16.0;;
22673;SDS011;11504;43.334;21.918;2022-08-05T18:45:44;15.0;;;15.0;;
22673;SDS011;11504;43.334;21.918;2022-08-05T18:50:22;15.0;;;15.0;;
22673;SDS011;11504;43.334;21.918;2022-08-05T18:55:01;16.0;;;15.0;;
22673;SDS011;11504;43.334;21.918;2022-08-05T18:59:45;16.0;;;15.0;;
22673;SDS011;11504;43.334;21.918;2022-08-05T19:04:22;16.0;;;15.0;;
22673;SDS011;11504;43.334;21.918;2022-08-05T19:08:59;16.0;;;15.0;;
22673;SDS011;11504;43.334;21.918;2022-08-05T19:13:35;15.0;;;14.0;;
22673;SDS011;11504;43.334;21.918;2022-08-05T19:18:13;15.0;;;14.0;;
22673;SDS011;11504;43.334;21.918;2022-08-05T19:22:49;14.0;;;13.0;;
22673;SDS011;11504;43.334;21.918;2022-08-05T19:27:27;14.0;;;13.0;;
22673;SDS011;11504;43.334;21.918;2022-08-05T19:32:04;14.0;;;13.0;;
22673;SDS011;11504;43.334;21.918;2022-08-05T19:36:42;14.0;;;14.0;;
22673;SDS011;11504;43.334;21.918;2022-08-05T19:41:19;14.0;;;14.0;;
22673;SDS011;11504;43.334;21.918;2022-08-05T19:45:56;15.0;;;14.0;;
22673;SDS011;11504;43.334;21.918;2022-08-05T19:50:33;15.0;;;14.0;;
22673;SDS011;11504;43.334;21.918;2022-08-05T19:55:10;16.0;;;15.0;;
22673;SDS011;11504;43.334;21.918;2022-08-05T19:59:46;16.0;;;15.0;;
22673;SDS011;11504;43.334;21.918;2022-08-05T20:04:24;17.0;;;16.0;;
22673;SDS011;11504;43.334;21.918;2022-08-05T20:09:02;17.0;;;16.0;;
22673;SDS011;11504;43.334;21.918;2022-08-05T20:13:40;16.0;;;16.0;;
22673;SDS011;11504;43.334;21.918;2022-08-05T20:18:17;16.0;;;16.0;;
22673;SDS011;11504;43.334;21.918;2022-08-05T20:22:54;16.0;;;15.0;;
22673;SDS011;11504;43.334;21.918;2022-08-05T20:27:31;16.0;;;15.0;;
22673;SDS011;11504;43.334;21.918;2022-08-05T20:32:07;16.0;;;15.0;;
22673;SDS011;11504;43.334;21.918;2022-08-05T20:36:44;16.0;;;14.0;;
22673;SDS011;11504;43.334;21.918;2022-08-05T20:41:21;16.0;;;14.0;;
22673;SDS011;11504;43.334;21.918;2022-08-05T20:45:58;15.0;;;14.0;;
22673;SDS011;11504;43.334;21.918;2022-08-05T20:50:36;15.0;;;14.0;;
22673;SDS011;11504;43.334;21.918;2022-08-05T20:55:13;16.0;;;15.0;;
22673;SDS011;11504;43.334;21.918;2022-08-05T20:59:50;16.0;;;15.0;;
22673;SDS011;11504;43.334;21.918;2022-08-05T21:04:27;17.0;;;16.0;;
22673;SDS011;11504;43.334;21.918;2022-08-05T21:09:04;17.0;;;16.0;;
22673;SDS011;11504;43.334;21.918;2022-08-05T21:13:42;16.0;;;16.0;;
22673;SDS011;11504;43.334;21.918;2022-08-05T21:18:19;16.0;;;16.0;;
22673;SDS011;11504;43.334;21.918;2022-08-05T21:22:56;16.0;;;15.0;;
22673;SDS011;11504;43.334;21.918;2022-08-05T21:27:33;16.0;;;15.0;;
22673;SDS011;11504;43.334;21.918;2022-08-05T21:32:10;16.0;;;15.0;;
22673;SDS011;11504;43.334;21.918;2022-08-05T21:36:46;16.0;;;16.0;;
22673;SDS011;11504;43.334;21.918;2022-08-05T21:41:23;16.0;;;16.0;;
22673;SDS011;11504;43.334;21.918;2022-08-05T21:46:00;17.0;;;16.0;;
22673;SDS011;11504;43.334;21.918;2022-08-05T21:50:38;17.0;;;16.0;;
22673;SDS011;11504;43.334;21.918;2022-08-05T21:55:16;16.0;;;16.0;;
22673;SDS011;11504;43.334;21.918;2022-08-05T21:59:53;16.0;;;16.0;;
22673;SDS011;11504;43.334;21.918;2022-08-05T22:04:30;16.0;;;15.0;;
22673;SDS011;11504;43.334;21.918;2022-08-05T22:09:07;16.0;;;15.0;;
22673;SDS011;11504;43.334;21.918;2022-08-05T22:13:45;16.0;;;14.0;;
22673;SDS011;11504;43.334;21.918;2022-08-05T22:18:24;16.0;;;14.0;;
22673;SDS011;11504;43.334;21.918;2022-08-05T22:23:01;15.0;;;14.0;;
22673;SDS011;11504;43.334;21.918;2022-08-05T22:27:38;15.0;;;14.0;;
22673;SDS011;11504;43.334;21.918;2022-08-05T22:32:14;15.0;;;14.0;;
22673;SDS011;11504;43.334;21.918;2022-08-05T22:36:51;14.0;;;14.0;;
22673;SDS011;11504;43.334;21.918;2022-08-05T22:41:28;14.0;;;14.0;;
22673;SDS011;11504;43.334;21.918;2022-08-05T22:46:05;14.0;;;13.0;;
22673;SDS011;11504;43.334;21.918;2022-08-05T22:50:42;14.0;;;13.0;;
22673;SDS011;11504;43.334;21.918;2022-08-05T22:55:20;16.0;;;16.0;;
22673;SDS011;11504;43.334;21.918;2022-08-05T22:59:59;16.0;;;16.0;;
22673;SDS011;11504;43.334;21.918;2022-08-05T23:04:39;19.0;;;18.0;;
22673;SDS011;11504;43.334;21.918;2022-08-05T23:09:16;19.0;;;18.0;;
22673;SDS011;11504;43.334;21.918;2022-08-05T23:13:52;20.0;;;18.0;;
22673;SDS011;11504;43.334;21.918;2022-08-05T23:18:29;20.0;;;18.0;;
22673;SDS011;11504;43.334;21.918;2022-08-05T23:23:06;20.0;;;19.0;;
22673;SDS011;11504;43.334;21.918;2022-08-05T23:27:44;20.0;;;19.0;;
22673;SDS011;11504;43.334;21.918;2022-08-05T23:32:20;20.0;;;19.0;;
22673;SDS011;11504;43.334;21.918;2022-08-05T23:36:58;18.0;;;17.0;;
22673;SDS011;11504;43.334;21.918;2022-08-05T23:41:35;18.0;;;17.0;;
22673;SDS011;11504;43.334;21.918;2022-08-05T23:46:12;16.0;;;15.0;;
22673;SDS011;11504;43.334;21.918;2022-08-05T23:50:49;16.0;;;15.0;;
22673;SDS011;11504;43.334;21.918;2022-08-05T23:55:25;16.0;;;15.0;;
